createdAt,value
2019-03-27T00:00:16.379Z,0.00
2019-03-27T00:01:16.375Z,0.00
2019-03-27T00:02:16.368Z,0.00
2019-03-27T00:03:16.389Z,0.00
2019-03-27T00:04:16.327Z,0.00
2019-03-27T00:05:16.317Z,0.00
2019-03-27T00:06:16.322Z,0.00
2019-03-27T00:07:16.308Z,0.00
2019-03-27T00:08:16.313Z,0.00
2019-03-27T00:09:16.314Z,0.00
2019-03-27T00:10:16.257Z,0.00
2019-03-27T00:11:16.492Z,0.00
2019-03-27T00:12:16.254Z,0.00
2019-03-27T00:13:17.053Z,0.00
2019-03-27T00:14:16.237Z,0.00
2019-03-27T00:15:16.218Z,0.00
2019-03-27T00:16:16.191Z,0.00
2019-03-27T00:17:16.184Z,0.00
2019-03-27T00:18:16.186Z,0.00
2019-03-27T00:19:16.267Z,0.00
2019-03-27T00:20:16.172Z,0.00
2019-03-27T00:21:16.143Z,0.00
2019-03-27T00:22:16.123Z,0.00
2019-03-27T00:23:16.122Z,0.00
2019-03-27T00:24:16.126Z,0.00
2019-03-27T00:25:16.117Z,0.00
2019-03-27T00:26:16.081Z,0.00
2019-03-27T00:27:16.081Z,0.00
2019-03-27T00:28:16.063Z,0.00
2019-03-27T00:29:16.050Z,0.00
2019-03-27T00:30:16.061Z,0.00
2019-03-27T00:31:16.046Z,0.00
2019-03-27T00:32:16.023Z,0.00
2019-03-27T00:33:16.009Z,0.00
2019-03-27T00:34:15.995Z,0.00
2019-03-27T00:35:16.019Z,0.00
2019-03-27T00:36:15.982Z,0.00
2019-03-27T00:37:15.986Z,0.00
2019-03-27T00:38:15.952Z,0.00
2019-03-27T00:39:15.945Z,0.00
2019-03-27T00:40:15.929Z,0.00
2019-03-27T00:41:15.934Z,0.00
2019-03-27T00:42:15.921Z,0.00
2019-03-27T00:43:16.002Z,0.00
2019-03-27T00:44:15.883Z,0.00
2019-03-27T00:45:25.846Z,0.00
2019-03-27T00:46:16.894Z,0.00
2019-03-27T00:47:15.872Z,0.00
2019-03-27T00:48:15.860Z,0.00
2019-03-27T00:49:15.852Z,0.00
2019-03-27T00:50:15.830Z,0.00
2019-03-27T00:51:15.817Z,0.00
2019-03-27T00:52:15.812Z,0.00
2019-03-27T00:53:15.794Z,0.00
2019-03-27T00:54:15.788Z,0.00
2019-03-27T00:55:15.760Z,0.00
2019-03-27T00:56:15.756Z,0.00
2019-03-27T00:57:15.764Z,0.00
2019-03-27T00:58:15.743Z,0.00
2019-03-27T00:59:15.749Z,0.00
2019-03-27T01:00:15.723Z,0.00
2019-03-27T01:01:15.695Z,0.00
2019-03-27T01:02:15.688Z,0.00
2019-03-27T01:03:15.692Z,0.00
2019-03-27T01:04:15.679Z,0.00
2019-03-27T01:05:15.665Z,0.00
2019-03-27T01:06:15.654Z,0.00
2019-03-27T01:07:15.626Z,0.00
2019-03-27T01:08:15.632Z,0.00
2019-03-27T01:09:15.606Z,0.00
2019-03-27T01:10:15.621Z,0.00
2019-03-27T01:11:15.595Z,0.00
2019-03-27T01:12:15.573Z,0.00
2019-03-27T01:13:15.567Z,0.00
2019-03-27T01:14:15.556Z,0.00
2019-03-27T01:15:15.541Z,0.00
2019-03-27T01:16:15.554Z,0.00
2019-03-27T01:17:15.540Z,0.00
2019-03-27T01:18:15.506Z,0.00
2019-03-27T01:19:15.580Z,0.00
2019-03-27T01:20:15.497Z,0.00
2019-03-27T01:21:15.479Z,0.00
2019-03-27T01:22:15.492Z,0.00
2019-03-27T01:23:15.473Z,0.00
2019-03-27T01:24:15.475Z,0.00
2019-03-27T01:25:15.437Z,0.00
2019-03-27T01:26:15.418Z,0.00
2019-03-27T01:27:15.411Z,0.00
2019-03-27T01:28:15.414Z,0.00
2019-03-27T01:29:15.400Z,0.00
2019-03-27T01:30:15.410Z,0.00
2019-03-27T01:31:15.412Z,0.00
2019-03-27T01:32:15.353Z,0.00
2019-03-27T01:33:15.349Z,0.00
2019-03-27T01:34:15.361Z,0.00
2019-03-27T01:35:15.345Z,0.00
2019-03-27T01:36:15.307Z,0.00
2019-03-27T01:37:15.306Z,0.00
2019-03-27T01:38:15.284Z,0.00
2019-03-27T01:39:15.285Z,0.00
2019-03-27T01:40:15.322Z,0.00
2019-03-27T01:41:15.274Z,0.00
2019-03-27T01:42:15.245Z,0.00
2019-03-27T01:43:15.260Z,0.00
2019-03-27T01:44:15.219Z,0.00
2019-03-27T01:45:15.220Z,0.00
2019-03-27T01:46:15.230Z,0.00
2019-03-27T01:47:15.202Z,0.00
2019-03-27T01:48:15.175Z,0.00
2019-03-27T01:49:15.166Z,0.00
2019-03-27T01:50:15.151Z,0.00
2019-03-27T01:51:15.155Z,0.00
2019-03-27T01:52:15.191Z,0.00
2019-03-27T01:53:15.117Z,0.00
2019-03-27T01:54:15.109Z,0.00
2019-03-27T01:55:16.086Z,0.00
2019-03-27T01:56:15.118Z,0.00
2019-03-27T01:57:15.114Z,0.00
2019-03-27T01:58:15.081Z,0.00
2019-03-27T01:59:15.054Z,0.00
2019-03-27T02:00:15.058Z,0.00
2019-03-27T02:01:15.056Z,0.00
2019-03-27T02:02:15.056Z,0.00
2019-03-27T02:03:15.014Z,0.00
2019-03-27T02:04:15.034Z,0.00
2019-03-27T02:05:14.986Z,0.00
2019-03-27T02:06:14.977Z,0.00
2019-03-27T02:07:14.990Z,0.00
2019-03-27T02:08:14.986Z,0.00
2019-03-27T02:09:14.964Z,0.00
2019-03-27T02:10:14.941Z,0.00
2019-03-27T02:11:14.921Z,0.00
2019-03-27T02:12:14.907Z,0.00
2019-03-27T02:13:14.929Z,0.00
2019-03-27T02:14:14.889Z,0.00
2019-03-27T02:15:14.919Z,0.00
2019-03-27T02:16:14.880Z,0.00
2019-03-27T02:17:14.857Z,0.00
2019-03-27T02:18:14.858Z,0.00
2019-03-27T02:19:14.837Z,0.00
2019-03-27T02:20:14.835Z,0.00
2019-03-27T02:21:14.824Z,0.00
2019-03-27T02:22:14.818Z,0.00
2019-03-27T02:23:14.795Z,0.00
2019-03-27T02:24:14.783Z,0.00
2019-03-27T02:25:14.766Z,0.00
2019-03-27T02:26:14.770Z,0.00
2019-03-27T02:27:14.777Z,0.00
2019-03-27T02:28:14.759Z,0.00
2019-03-27T02:29:14.737Z,0.00
2019-03-27T02:30:14.713Z,0.00
2019-03-27T02:31:14.703Z,0.00
2019-03-27T02:32:14.705Z,0.00
2019-03-27T02:33:14.711Z,0.00
2019-03-27T02:34:14.691Z,0.00
2019-03-27T02:35:14.670Z,0.00
2019-03-27T02:36:14.645Z,0.00
2019-03-27T02:37:14.633Z,0.00
2019-03-27T02:38:14.637Z,0.00
2019-03-27T02:39:14.629Z,0.00
2019-03-27T02:40:14.645Z,0.00
2019-03-27T02:41:14.604Z,0.00
2019-03-27T02:42:14.582Z,0.00
2019-03-27T02:43:14.570Z,0.00
2019-03-27T02:44:14.572Z,0.00
2019-03-27T02:45:14.554Z,0.00
2019-03-27T02:46:24.399Z,0.00
2019-03-27T02:47:14.548Z,0.00
2019-03-27T02:48:14.523Z,0.00
2019-03-27T02:49:14.507Z,0.00
2019-03-27T02:50:14.499Z,0.00
2019-03-27T02:51:14.616Z,0.00
2019-03-27T02:52:14.467Z,0.00
2019-03-27T02:53:14.458Z,0.00
2019-03-27T02:54:14.452Z,0.00
2019-03-27T02:55:14.437Z,0.00
2019-03-27T02:56:14.439Z,0.00
2019-03-27T02:57:14.427Z,0.00
2019-03-27T02:58:14.407Z,0.00
2019-03-27T02:59:14.403Z,0.00
2019-03-27T03:00:14.379Z,0.00
2019-03-27T03:01:14.373Z,0.00
2019-03-27T03:02:14.395Z,0.00
2019-03-27T03:03:14.379Z,0.00
2019-03-27T03:04:14.339Z,0.00
2019-03-27T03:05:14.339Z,0.00
2019-03-27T03:06:14.322Z,0.00
2019-03-27T03:07:14.310Z,0.00
2019-03-27T03:08:14.317Z,0.00
2019-03-27T03:09:14.361Z,0.00
2019-03-27T03:10:14.275Z,0.00
2019-03-27T03:11:14.278Z,0.00
2019-03-27T03:12:14.320Z,0.00
2019-03-27T03:13:14.270Z,0.00
2019-03-27T03:14:14.246Z,0.00
2019-03-27T03:15:14.233Z,0.00
2019-03-27T03:16:14.204Z,0.00
2019-03-27T03:17:14.208Z,0.00
2019-03-27T03:18:14.200Z,0.00
2019-03-27T03:19:14.236Z,0.00
2019-03-27T03:20:14.180Z,0.00
2019-03-27T03:21:14.171Z,0.00
2019-03-27T03:22:14.144Z,0.00
2019-03-27T03:23:14.133Z,0.00
2019-03-27T03:24:14.122Z,0.00
2019-03-27T03:25:14.123Z,0.00
2019-03-27T03:26:14.113Z,0.00
2019-03-27T03:27:14.107Z,0.00
2019-03-27T03:28:14.110Z,0.00
2019-03-27T03:29:14.082Z,0.00
2019-03-27T03:30:14.051Z,0.00
2019-03-27T03:31:14.056Z,0.00
2019-03-27T03:32:14.044Z,0.00
2019-03-27T03:33:14.042Z,0.00
2019-03-27T03:34:14.162Z,0.00
2019-03-27T03:35:14.015Z,0.00
2019-03-27T03:36:13.990Z,0.00
2019-03-27T03:37:14.007Z,0.00
2019-03-27T03:38:13.990Z,0.00
2019-03-27T03:39:13.974Z,0.00
2019-03-27T03:40:13.939Z,0.00
2019-03-27T03:41:13.930Z,0.00
2019-03-27T03:42:13.918Z,0.00
2019-03-27T03:43:13.933Z,0.00
2019-03-27T03:44:13.927Z,0.00
2019-03-27T03:45:13.886Z,0.00
2019-03-27T03:46:13.872Z,0.00
2019-03-27T03:47:13.866Z,0.00
2019-03-27T03:48:13.854Z,0.00
2019-03-27T03:49:13.862Z,0.00
2019-03-27T03:50:13.864Z,0.00
2019-03-27T03:51:13.818Z,0.00
2019-03-27T03:52:13.812Z,0.00
2019-03-27T03:53:13.830Z,0.00
2019-03-27T03:54:13.802Z,0.00
2019-03-27T03:55:13.816Z,0.00
2019-03-27T03:56:13.794Z,0.00
2019-03-27T03:57:13.761Z,0.00
2019-03-27T03:58:13.746Z,0.00
2019-03-27T03:59:13.737Z,0.00
2019-03-27T04:00:13.746Z,0.00
2019-03-27T04:01:13.726Z,0.00
2019-03-27T04:02:13.720Z,0.00
2019-03-27T04:03:13.740Z,0.00
2019-03-27T04:04:13.676Z,0.00
2019-03-27T04:05:13.683Z,0.00
2019-03-27T04:06:13.682Z,0.00
2019-03-27T04:07:13.662Z,0.00
2019-03-27T04:08:13.670Z,0.00
2019-03-27T04:09:13.662Z,0.00
2019-03-27T04:10:13.609Z,0.00
2019-03-27T04:11:13.597Z,0.00
2019-03-27T04:12:13.603Z,0.00
2019-03-27T04:13:13.610Z,0.00
2019-03-27T04:14:13.590Z,0.00
2019-03-27T04:15:13.560Z,0.00
2019-03-27T04:16:13.541Z,0.00
2019-03-27T04:17:17.323Z,0.00
2019-03-27T04:18:13.530Z,0.00
2019-03-27T04:19:13.524Z,0.00
2019-03-27T04:20:13.501Z,0.00
2019-03-27T04:21:13.488Z,0.00
2019-03-27T04:22:13.494Z,0.00
2019-03-27T04:23:13.492Z,0.00
2019-03-27T04:24:13.470Z,0.00
2019-03-27T04:25:13.466Z,0.00
2019-03-27T04:26:13.449Z,0.00
2019-03-27T04:27:13.424Z,0.00
2019-03-27T04:28:13.440Z,0.00
2019-03-27T04:29:13.412Z,0.00
2019-03-27T04:30:13.405Z,0.00
2019-03-27T04:31:13.398Z,0.00
2019-03-27T04:32:13.387Z,0.00
2019-03-27T04:33:13.398Z,0.00
2019-03-27T04:34:13.365Z,0.00
2019-03-27T04:35:13.348Z,0.00
2019-03-27T04:36:13.342Z,0.00
2019-03-27T04:37:13.310Z,0.00
2019-03-27T04:38:13.298Z,0.00
2019-03-27T04:39:13.316Z,0.00
2019-03-27T04:40:13.286Z,0.00
2019-03-27T04:41:13.286Z,0.00
2019-03-27T04:42:13.267Z,0.00
2019-03-27T04:43:13.308Z,0.00
2019-03-27T04:44:13.233Z,0.00
2019-03-27T04:45:13.231Z,0.00
2019-03-27T04:46:13.221Z,0.00
2019-03-27T04:47:13.222Z,0.00
2019-03-27T04:48:13.198Z,0.00
2019-03-27T04:49:13.179Z,0.00
2019-03-27T04:50:13.186Z,0.00
2019-03-27T04:51:13.157Z,0.00
2019-03-27T04:52:13.146Z,0.00
2019-03-27T04:53:13.148Z,0.00
2019-03-27T04:54:13.133Z,0.00
2019-03-27T04:55:13.115Z,0.00
2019-03-27T04:56:13.112Z,0.00
2019-03-27T04:57:13.092Z,0.00
2019-03-27T04:58:13.085Z,0.00
2019-03-27T04:59:13.088Z,0.00
2019-03-27T05:00:13.090Z,0.00
2019-03-27T05:01:13.096Z,0.00
2019-03-27T05:02:13.050Z,0.00
2019-03-27T05:03:13.028Z,0.00
2019-03-27T05:04:13.038Z,0.00
2019-03-27T05:05:13.022Z,0.00
2019-03-27T05:06:13.026Z,0.00
2019-03-27T05:07:13.805Z,0.00
2019-03-27T05:08:12.968Z,0.00
2019-03-27T05:09:12.965Z,0.00
2019-03-27T05:10:12.962Z,0.00
2019-03-27T05:11:13.020Z,0.00
2019-03-27T05:12:12.967Z,0.00
2019-03-27T05:13:12.922Z,0.00
2019-03-27T05:14:12.901Z,0.00
2019-03-27T05:15:12.896Z,0.00
2019-03-27T05:16:12.912Z,0.00
2019-03-27T05:17:12.892Z,0.00
2019-03-27T05:18:12.864Z,0.00
2019-03-27T05:19:12.853Z,0.00
2019-03-27T05:20:12.837Z,0.00
2019-03-27T05:21:12.824Z,0.00
2019-03-27T05:22:12.842Z,0.00
2019-03-27T05:23:12.864Z,0.00
2019-03-27T05:24:12.795Z,0.00
2019-03-27T05:25:12.791Z,0.00
2019-03-27T05:26:12.777Z,0.00
2019-03-27T05:27:12.762Z,0.00
2019-03-27T05:28:12.782Z,0.00
2019-03-27T05:29:12.765Z,0.00
2019-03-27T05:30:12.727Z,0.00
2019-03-27T05:31:12.717Z,5.62
2019-03-27T05:32:12.718Z,5.62
2019-03-27T05:33:12.733Z,5.62
2019-03-27T05:34:12.697Z,5.62
2019-03-27T05:35:12.694Z,5.62
2019-03-27T05:36:12.659Z,5.62
2019-03-27T05:37:12.651Z,5.62
2019-03-27T05:38:12.637Z,5.62
2019-03-27T05:39:14.697Z,5.62
2019-03-27T05:40:12.633Z,0.00
2019-03-27T05:41:12.624Z,0.00
2019-03-27T05:42:12.597Z,5.62
2019-03-27T05:43:12.583Z,5.62
2019-03-27T05:44:12.572Z,5.62
2019-03-27T05:45:12.600Z,5.62
2019-03-27T05:46:12.571Z,5.62
2019-03-27T05:47:12.617Z,5.62
2019-03-27T05:48:12.533Z,5.62
2019-03-27T05:49:12.520Z,5.62
2019-03-27T05:50:12.530Z,5.62
2019-03-27T05:51:12.535Z,5.62
2019-03-27T05:52:12.495Z,5.62
2019-03-27T05:53:12.500Z,5.62
2019-03-27T05:54:12.464Z,5.62
2019-03-27T05:55:12.449Z,5.62
2019-03-27T05:56:12.459Z,5.62
2019-03-27T05:57:12.482Z,5.62
2019-03-27T05:58:12.439Z,5.62
2019-03-27T05:59:12.407Z,5.62
2019-03-27T06:00:12.395Z,5.62
2019-03-27T06:01:12.402Z,5.62
2019-03-27T06:02:12.377Z,5.62
2019-03-27T06:03:12.392Z,5.62
2019-03-27T06:04:12.376Z,5.62
2019-03-27T06:05:12.347Z,5.62
2019-03-27T06:06:12.336Z,5.62
2019-03-27T06:07:12.322Z,5.62
2019-03-27T06:08:12.324Z,5.62
2019-03-27T06:09:12.310Z,5.62
2019-03-27T06:10:12.306Z,5.62
2019-03-27T06:11:12.283Z,5.62
2019-03-27T06:12:12.282Z,5.62
2019-03-27T06:13:12.251Z,5.62
2019-03-27T06:14:12.251Z,5.62
2019-03-27T06:15:12.270Z,5.62
2019-03-27T06:16:12.249Z,5.62
2019-03-27T06:17:12.260Z,5.62
2019-03-27T06:18:13.239Z,5.62
2019-03-27T06:19:12.184Z,5.62
2019-03-27T06:20:12.284Z,5.62
2019-03-27T06:21:13.108Z,11.25
2019-03-27T06:22:14.983Z,11.25
2019-03-27T06:23:12.182Z,11.25
2019-03-27T06:24:12.135Z,11.25
2019-03-27T06:25:12.123Z,11.25
2019-03-27T06:26:12.124Z,5.62
2019-03-27T06:27:12.128Z,5.62
2019-03-27T06:28:12.115Z,11.25
2019-03-27T06:29:12.124Z,11.25
2019-03-27T06:30:12.066Z,11.25
2019-03-27T06:31:12.059Z,11.25
2019-03-27T06:32:12.046Z,11.25
2019-03-27T06:33:12.084Z,11.25
2019-03-27T06:34:12.065Z,11.25
2019-03-27T06:35:12.009Z,11.25
2019-03-27T06:36:12.615Z,11.25
2019-03-27T06:37:11.993Z,11.25
2019-03-27T06:38:11.997Z,11.25
2019-03-27T06:39:12.140Z,11.25
2019-03-27T06:40:11.957Z,16.88
2019-03-27T06:41:11.939Z,16.88
2019-03-27T06:42:11.941Z,16.88
2019-03-27T06:43:11.939Z,16.88
2019-03-27T06:44:11.921Z,22.50
2019-03-27T06:45:12.125Z,22.50
2019-03-27T06:46:11.887Z,22.50
2019-03-27T06:47:11.874Z,22.50
2019-03-27T06:48:11.863Z,22.50
2019-03-27T06:49:11.869Z,16.88
2019-03-27T06:50:11.876Z,16.88
2019-03-27T06:51:11.855Z,16.88
2019-03-27T06:52:11.820Z,16.88
2019-03-27T06:53:11.808Z,16.88
2019-03-27T06:54:11.797Z,22.50
2019-03-27T06:55:11.806Z,22.50
2019-03-27T06:56:11.799Z,22.50
2019-03-27T06:57:11.763Z,22.50
2019-03-27T06:58:11.754Z,16.88
2019-03-27T06:59:11.741Z,16.88
2019-03-27T07:00:11.740Z,16.88
2019-03-27T07:01:11.748Z,16.88
2019-03-27T07:02:11.720Z,22.50
2019-03-27T07:03:11.704Z,22.50
2019-03-27T07:04:11.692Z,22.50
2019-03-27T07:05:11.673Z,22.50
2019-03-27T07:06:11.667Z,22.50
2019-03-27T07:07:11.693Z,22.50
2019-03-27T07:08:11.656Z,22.50
2019-03-27T07:09:11.665Z,22.50
2019-03-27T07:10:11.634Z,16.88
2019-03-27T07:11:11.619Z,16.88
2019-03-27T07:12:20.926Z,16.88
2019-03-27T07:13:11.595Z,22.50
2019-03-27T07:14:11.606Z,22.50
2019-03-27T07:15:11.572Z,22.50
2019-03-27T07:16:11.554Z,22.50
2019-03-27T07:17:11.541Z,22.50
2019-03-27T07:18:11.544Z,22.50
2019-03-27T07:19:11.542Z,22.50
2019-03-27T07:20:11.540Z,22.50
2019-03-27T07:21:11.497Z,22.50
2019-03-27T07:22:11.487Z,28.12
2019-03-27T07:23:11.477Z,28.12
2019-03-27T07:24:11.477Z,28.12
2019-03-27T07:25:11.496Z,28.12
2019-03-27T07:26:11.508Z,28.12
2019-03-27T07:27:11.433Z,28.12
2019-03-27T07:28:11.420Z,33.75
2019-03-27T07:29:11.408Z,33.75
2019-03-27T07:30:11.410Z,33.75
2019-03-27T07:31:11.398Z,33.75
2019-03-27T07:32:11.376Z,33.75
2019-03-27T07:33:11.375Z,33.75
2019-03-27T07:34:11.358Z,28.12
2019-03-27T07:35:11.366Z,28.12
2019-03-27T07:36:11.350Z,33.75
2019-03-27T07:37:11.328Z,33.75
2019-03-27T07:38:11.307Z,39.38
2019-03-27T07:39:11.629Z,39.38
2019-03-27T07:40:11.289Z,39.38
2019-03-27T07:41:11.278Z,39.38
2019-03-27T07:42:11.284Z,39.38
2019-03-27T07:43:11.270Z,45.00
2019-03-27T07:44:11.242Z,45.00
2019-03-27T07:45:11.308Z,50.62
2019-03-27T07:46:11.234Z,50.62
2019-03-27T07:47:11.249Z,50.62
2019-03-27T07:48:11.211Z,45.00
2019-03-27T07:49:11.204Z,39.38
2019-03-27T07:50:11.180Z,33.75
2019-03-27T07:51:11.171Z,39.38
2019-03-27T07:52:11.153Z,39.38
2019-03-27T07:53:11.158Z,39.38
2019-03-27T07:54:11.147Z,45.00
2019-03-27T07:55:19.266Z,50.62
2019-03-27T07:56:12.127Z,61.88
2019-03-27T07:57:11.096Z,67.50
2019-03-27T07:58:11.095Z,67.50
2019-03-27T07:59:11.085Z,67.50
2019-03-27T08:00:11.077Z,61.88
2019-03-27T08:01:11.084Z,61.88
2019-03-27T08:02:11.052Z,61.88
2019-03-27T08:03:11.036Z,61.88
2019-03-27T08:04:14.188Z,56.25
2019-03-27T08:05:11.031Z,50.62
2019-03-27T08:06:11.031Z,50.62
2019-03-27T08:07:11.031Z,56.25
2019-03-27T08:08:10.975Z,61.88
2019-03-27T08:09:10.967Z,61.88
2019-03-27T08:10:10.959Z,61.88
2019-03-27T08:11:10.975Z,56.25
2019-03-27T08:12:10.953Z,50.62
2019-03-27T08:13:10.945Z,50.62
2019-03-27T08:14:10.912Z,50.62
2019-03-27T08:15:10.899Z,50.62
2019-03-27T08:16:10.895Z,50.62
2019-03-27T08:17:10.903Z,56.25
2019-03-27T08:18:10.907Z,61.88
2019-03-27T08:19:10.853Z,61.88
2019-03-27T08:20:10.846Z,67.50
2019-03-27T08:21:10.831Z,67.50
2019-03-27T08:22:10.827Z,73.12
2019-03-27T08:23:10.828Z,67.50
2019-03-27T08:24:10.821Z,73.12
2019-03-27T08:25:10.788Z,67.50
2019-03-27T08:26:10.774Z,61.88
2019-03-27T08:27:10.765Z,50.62
2019-03-27T08:28:10.763Z,56.25
2019-03-27T08:29:10.772Z,50.62
2019-03-27T08:30:10.755Z,56.25
2019-03-27T08:31:10.727Z,50.62
2019-03-27T08:32:10.714Z,61.88
2019-03-27T08:33:10.697Z,73.12
2019-03-27T08:34:11.133Z,67.50
2019-03-27T08:35:10.693Z,67.50
2019-03-27T08:36:10.683Z,61.88
2019-03-27T08:37:10.653Z,56.25
2019-03-27T08:38:10.641Z,61.88
2019-03-27T08:39:10.633Z,67.50
2019-03-27T08:40:10.649Z,67.50
2019-03-27T08:41:10.631Z,67.50
2019-03-27T08:42:10.619Z,67.50
2019-03-27T08:43:20.644Z,61.88
2019-03-27T08:44:10.580Z,56.25
2019-03-27T08:45:10.577Z,56.25
2019-03-27T08:46:10.572Z,56.25
2019-03-27T08:47:10.560Z,56.25
2019-03-27T08:48:10.533Z,50.62
2019-03-27T08:49:21.153Z,45.00
2019-03-27T08:50:10.524Z,39.38
2019-03-27T08:51:10.520Z,39.38
2019-03-27T08:52:10.512Z,33.75
2019-03-27T08:53:10.497Z,28.12
2019-03-27T08:54:10.472Z,28.12
2019-03-27T08:55:13.637Z,28.12
2019-03-27T08:56:10.441Z,28.12
2019-03-27T08:57:10.460Z,28.12
2019-03-27T08:58:10.431Z,28.12
2019-03-27T08:59:10.431Z,33.75
2019-03-27T09:00:10.446Z,33.75
2019-03-27T09:01:10.401Z,33.75
2019-03-27T09:02:10.381Z,39.38
2019-03-27T09:03:10.374Z,39.38
2019-03-27T09:04:10.363Z,39.38
2019-03-27T09:05:10.377Z,45.00
2019-03-27T09:06:10.330Z,45.00
2019-03-27T09:07:10.322Z,45.00
2019-03-27T09:08:10.309Z,45.00
2019-03-27T09:09:10.306Z,50.62
2019-03-27T09:10:10.324Z,61.88
2019-03-27T09:11:10.303Z,67.50
2019-03-27T09:12:10.265Z,67.50
2019-03-27T09:13:10.252Z,67.50
2019-03-27T09:14:10.248Z,67.50
2019-03-27T09:15:10.245Z,67.50
2019-03-27T09:16:10.256Z,67.50
2019-03-27T09:17:10.235Z,67.50
2019-03-27T09:18:11.117Z,73.12
2019-03-27T09:19:10.203Z,73.12
2019-03-27T09:20:10.199Z,67.50
2019-03-27T09:21:10.179Z,56.25
2019-03-27T09:22:10.164Z,56.25
2019-03-27T09:23:10.170Z,67.50
2019-03-27T09:24:10.143Z,61.88
2019-03-27T09:25:10.155Z,56.25
2019-03-27T09:26:10.109Z,50.62
2019-03-27T09:27:10.136Z,50.62
2019-03-27T09:28:10.095Z,45.00
2019-03-27T09:29:10.081Z,45.00
2019-03-27T09:30:10.067Z,50.62
2019-03-27T09:31:10.092Z,56.25
2019-03-27T09:32:10.047Z,67.50
2019-03-27T09:33:10.090Z,78.75
2019-03-27T09:34:10.132Z,78.75
2019-03-27T09:35:10.010Z,84.38
2019-03-27T09:36:10.077Z,95.62
2019-03-27T09:37:10.058Z,95.62
2019-03-27T09:38:10.032Z,101.25
2019-03-27T09:39:09.982Z,106.88
2019-03-27T09:40:09.967Z,106.88
2019-03-27T09:41:09.945Z,106.88
2019-03-27T09:42:09.956Z,106.88
2019-03-27T09:43:09.923Z,106.88
2019-03-27T09:44:09.914Z,101.25
2019-03-27T09:45:09.909Z,95.62
2019-03-27T09:46:09.909Z,84.38
2019-03-27T09:47:09.930Z,84.38
2019-03-27T09:48:09.863Z,78.75
2019-03-27T09:49:09.860Z,73.12
2019-03-27T09:50:09.865Z,73.12
2019-03-27T09:51:09.856Z,73.12
2019-03-27T09:52:09.840Z,73.12
2019-03-27T09:53:09.821Z,67.50
2019-03-27T09:54:09.804Z,67.50
2019-03-27T09:55:09.797Z,61.88
2019-03-27T09:56:19.033Z,56.25
2019-03-27T09:57:09.797Z,61.88
2019-03-27T09:58:09.753Z,67.50
2019-03-27T09:59:09.747Z,67.50
2019-03-27T10:00:09.730Z,61.88
2019-03-27T10:01:09.721Z,56.25
2019-03-27T10:02:09.734Z,56.25
2019-03-27T10:03:09.713Z,56.25
2019-03-27T10:04:09.688Z,56.25
2019-03-27T10:05:09.725Z,61.88
2019-03-27T10:06:09.670Z,61.88
2019-03-27T10:07:09.655Z,67.50
2019-03-27T10:08:09.664Z,67.50
2019-03-27T10:09:09.646Z,73.12
2019-03-27T10:10:09.647Z,78.75
2019-03-27T10:11:09.620Z,78.75
2019-03-27T10:12:09.601Z,90.00
2019-03-27T10:13:09.598Z,101.25
2019-03-27T10:14:09.586Z,112.50
2019-03-27T10:15:09.589Z,123.75
2019-03-27T10:16:09.587Z,118.12
2019-03-27T10:17:09.542Z,112.50
2019-03-27T10:18:09.531Z,95.62
2019-03-27T10:19:09.533Z,78.75
2019-03-27T10:20:09.521Z,67.50
2019-03-27T10:21:09.526Z,67.50
2019-03-27T10:22:09.498Z,56.25
2019-03-27T10:23:09.478Z,50.62
2019-03-27T10:24:09.471Z,45.00
2019-03-27T10:25:09.492Z,39.38
2019-03-27T10:26:09.453Z,33.75
2019-03-27T10:27:09.452Z,33.75
2019-03-27T10:28:09.421Z,33.75
2019-03-27T10:29:09.425Z,33.75
2019-03-27T10:30:09.400Z,39.38
2019-03-27T10:31:09.418Z,39.38
2019-03-27T10:32:09.399Z,39.38
2019-03-27T10:33:09.394Z,39.38
2019-03-27T10:34:09.355Z,39.38
2019-03-27T10:35:09.391Z,39.38
2019-03-27T10:36:09.353Z,39.38
2019-03-27T10:37:09.342Z,45.00
2019-03-27T10:38:09.329Z,45.00
2019-03-27T10:39:09.300Z,45.00
2019-03-27T10:40:09.332Z,39.38
2019-03-27T10:41:09.287Z,33.75
2019-03-27T10:42:09.281Z,33.75
2019-03-27T10:43:09.270Z,33.75
2019-03-27T10:44:09.252Z,33.75
2019-03-27T10:45:09.233Z,39.38
2019-03-27T10:46:09.230Z,45.00
2019-03-27T10:47:09.221Z,56.25
2019-03-27T10:48:09.203Z,56.25
2019-03-27T10:49:09.208Z,56.25
2019-03-27T10:50:17.604Z,56.25
2019-03-27T10:51:10.173Z,56.25
2019-03-27T10:52:09.156Z,50.62
2019-03-27T10:53:09.165Z,50.62
2019-03-27T10:54:09.147Z,50.62
2019-03-27T10:55:09.130Z,50.62
2019-03-27T10:56:09.124Z,50.62
2019-03-27T10:57:09.104Z,45.00
2019-03-27T10:58:09.098Z,45.00
2019-03-27T10:59:09.083Z,39.38
2019-03-27T11:00:09.074Z,39.38
2019-03-27T11:01:09.080Z,45.00
2019-03-27T11:02:09.640Z,56.25
2019-03-27T11:03:09.077Z,61.88
2019-03-27T11:04:09.032Z,61.88
2019-03-27T11:05:09.021Z,61.88
2019-03-27T11:06:09.035Z,56.25
2019-03-27T11:07:09.009Z,50.62
2019-03-27T11:08:11.482Z,45.00
2019-03-27T11:09:08.977Z,50.62
2019-03-27T11:10:09.018Z,56.25
2019-03-27T11:11:08.962Z,67.50
2019-03-27T11:12:08.956Z,67.50
2019-03-27T11:13:08.942Z,73.12
2019-03-27T11:14:08.935Z,73.12
2019-03-27T11:15:08.903Z,78.75
2019-03-27T11:16:08.906Z,78.75
2019-03-27T11:17:08.908Z,84.38
2019-03-27T11:18:08.886Z,90.00
2019-03-27T11:19:08.867Z,90.00
2019-03-27T11:20:08.849Z,84.38
2019-03-27T11:21:08.847Z,84.38
2019-03-27T11:22:08.832Z,78.75
2019-03-27T11:23:08.837Z,73.12
2019-03-27T11:24:08.812Z,73.12
2019-03-27T11:25:08.822Z,73.12
2019-03-27T11:26:08.839Z,73.12
2019-03-27T11:27:08.777Z,73.12
2019-03-27T11:28:08.758Z,73.12
2019-03-27T11:29:08.761Z,67.50
2019-03-27T11:30:08.748Z,61.88
2019-03-27T11:31:08.759Z,61.88
2019-03-27T11:32:08.755Z,61.88
2019-03-27T11:33:08.786Z,67.50
2019-03-27T11:34:08.693Z,67.50
2019-03-27T11:35:08.695Z,73.12
2019-03-27T11:36:08.680Z,73.12
2019-03-27T11:37:08.692Z,73.12
2019-03-27T11:38:08.649Z,73.12
2019-03-27T11:39:08.638Z,73.12
2019-03-27T11:40:08.628Z,67.50
2019-03-27T11:41:11.955Z,73.12
2019-03-27T11:42:08.618Z,73.12
2019-03-27T11:43:08.614Z,73.12
2019-03-27T11:44:08.595Z,73.12
2019-03-27T11:45:08.577Z,67.50
2019-03-27T11:46:08.572Z,67.50
2019-03-27T11:47:08.596Z,67.50
2019-03-27T11:48:08.584Z,61.88
2019-03-27T11:49:08.553Z,56.25
2019-03-27T11:50:08.545Z,61.88
2019-03-27T11:51:08.534Z,73.12
2019-03-27T11:52:08.514Z,78.75
2019-03-27T11:53:08.504Z,90.00
2019-03-27T11:54:08.488Z,101.25
2019-03-27T11:55:08.461Z,101.25
2019-03-27T11:56:09.142Z,84.38
2019-03-27T11:57:08.449Z,67.50
2019-03-27T11:58:08.461Z,61.88
2019-03-27T11:59:08.422Z,56.25
2019-03-27T12:00:08.421Z,56.25
2019-03-27T12:01:08.419Z,56.25
2019-03-27T12:02:08.403Z,56.25
2019-03-27T12:03:08.401Z,61.88
2019-03-27T12:04:08.369Z,56.25
2019-03-27T12:05:08.356Z,50.62
2019-03-27T12:06:08.376Z,50.62
2019-03-27T12:07:08.328Z,50.62
2019-03-27T12:08:08.317Z,56.25
2019-03-27T12:09:08.305Z,56.25
2019-03-27T12:10:08.315Z,56.25
2019-03-27T12:11:08.308Z,56.25
2019-03-27T12:12:08.293Z,56.25
2019-03-27T12:13:08.263Z,56.25
2019-03-27T12:14:08.252Z,56.25
2019-03-27T12:15:08.242Z,56.25
2019-03-27T12:16:08.686Z,45.00
2019-03-27T12:17:08.235Z,39.38
2019-03-27T12:18:08.236Z,39.38
2019-03-27T12:19:08.201Z,33.75
2019-03-27T12:20:08.183Z,39.38
2019-03-27T12:21:08.175Z,39.38
2019-03-27T12:22:08.177Z,39.38
2019-03-27T12:23:08.176Z,45.00
2019-03-27T12:24:08.144Z,50.62
2019-03-27T12:25:08.151Z,56.25
2019-03-27T12:26:08.139Z,73.12
2019-03-27T12:27:08.108Z,84.38
2019-03-27T12:28:08.128Z,90.00
2019-03-27T12:29:08.119Z,95.62
2019-03-27T12:30:08.077Z,90.00
2019-03-27T12:31:08.147Z,90.00
2019-03-27T12:32:08.052Z,84.38
2019-03-27T12:33:08.052Z,84.38
2019-03-27T12:34:08.048Z,84.38
2019-03-27T12:35:08.056Z,78.75
2019-03-27T12:36:08.048Z,67.50
2019-03-27T12:37:08.019Z,67.50
2019-03-27T12:38:07.983Z,61.88
2019-03-27T12:39:07.985Z,56.25
2019-03-27T12:40:12.006Z,50.62
2019-03-27T12:41:07.983Z,45.00
2019-03-27T12:42:07.948Z,39.38
2019-03-27T12:43:07.932Z,33.75
2019-03-27T12:44:07.932Z,28.12
2019-03-27T12:45:07.919Z,28.12
2019-03-27T12:46:07.909Z,28.12
2019-03-27T12:47:07.912Z,22.50
2019-03-27T12:48:07.873Z,22.50
2019-03-27T12:49:07.885Z,22.50
2019-03-27T12:50:07.856Z,22.50
2019-03-27T12:51:12.939Z,22.50
2019-03-27T12:52:08.835Z,16.88
2019-03-27T12:53:07.852Z,16.88
2019-03-27T12:54:07.811Z,16.88
2019-03-27T12:55:07.794Z,16.88
2019-03-27T12:56:07.785Z,22.50
2019-03-27T12:57:07.785Z,22.50
2019-03-27T12:58:07.792Z,22.50
2019-03-27T12:59:07.787Z,22.50
2019-03-27T13:00:07.744Z,16.88
2019-03-27T13:01:07.729Z,16.88
2019-03-27T13:02:08.654Z,16.88
2019-03-27T13:03:07.725Z,16.88
2019-03-27T13:04:07.721Z,16.88